createdAt,value
2018-04-23T00:01:34.013Z,46.10
2018-04-23T00:04:01.691Z,45.90
2018-04-23T00:06:29.286Z,45.90
2018-04-23T00:08:58.598Z,45.30
2018-04-23T00:11:26.997Z,45.10
2018-04-23T00:13:54.638Z,45.10
2018-04-23T00:16:23.465Z,45.10
2018-04-23T00:18:51.214Z,45.40
2018-04-23T00:21:18.819Z,45.10
2018-04-23T00:23:46.407Z,45.40
2018-04-23T00:26:14.771Z,45.70
2018-04-23T00:28:43.151Z,46.40
2018-04-23T00:31:11.516Z,45.70
2018-04-23T00:33:39.127Z,45.60
2018-04-23T00:36:06.749Z,45.90
2018-04-23T00:38:35.097Z,45.70
2018-04-23T00:41:02.696Z,45.70
2018-04-23T00:43:31.220Z,46.00
2018-04-23T00:45:58.823Z,45.90
2018-04-23T00:48:26.426Z,46.10
2018-04-23T00:50:54.012Z,46.20
2018-04-23T00:53:34.199Z,46.10
2018-04-23T00:56:05.373Z,46.10
2018-04-23T00:58:52.730Z,46.40
2018-04-23T01:01:24.391Z,46.30
2018-04-23T01:03:51.971Z,46.30
2018-04-23T01:06:19.550Z,46.30
2018-04-23T01:08:47.148Z,46.10
2018-04-23T01:11:15.593Z,46.30
2018-04-23T01:13:43.197Z,46.30
2018-04-23T01:16:11.543Z,46.00
2018-04-23T01:18:39.159Z,46.00
2018-04-23T01:21:06.802Z,46.30
2018-04-23T01:23:35.150Z,46.40
2018-04-23T01:26:02.722Z,46.40
2018-04-23T01:28:30.295Z,46.20
2018-04-23T01:30:58.627Z,46.20
2018-04-23T01:33:26.236Z,46.20
2018-04-23T01:35:54.607Z,46.30
2018-04-23T01:38:22.943Z,46.40
2018-04-23T01:40:50.569Z,46.30
2018-04-23T01:43:18.167Z,46.40
2018-04-23T01:45:45.745Z,46.40
2018-04-23T01:48:13.451Z,46.80
2018-04-23T01:50:41.045Z,46.80
2018-04-23T01:53:08.631Z,46.70
2018-04-23T01:55:36.243Z,47.20
2018-04-23T01:58:03.819Z,48.60
2018-04-23T02:00:31.448Z,48.80
2018-04-23T02:02:59.013Z,49.20
2018-04-23T02:05:26.601Z,49.00
2018-04-23T02:07:54.190Z,48.40
2018-04-23T02:10:21.787Z,48.50
2018-04-23T02:12:49.393Z,48.90
2018-04-23T02:15:17.029Z,48.50
2018-04-23T02:17:44.608Z,48.20
2018-04-23T02:20:12.165Z,47.90
2018-04-23T02:22:39.788Z,48.60
2018-04-23T02:25:07.386Z,48.60
2018-04-23T02:27:34.948Z,48.60
2018-04-23T02:30:02.568Z,48.50
2018-04-23T02:32:30.149Z,48.90
2018-04-23T02:34:57.700Z,49.70
2018-04-23T02:37:25.306Z,49.70
2018-04-23T02:39:52.890Z,49.90
2018-04-23T02:42:21.285Z,50.70
2018-04-23T02:44:48.866Z,50.70
2018-04-23T02:47:16.451Z,50.60
2018-04-23T02:49:44.089Z,50.40
2018-04-23T02:52:11.661Z,50.60
2018-04-23T02:54:39.236Z,50.80
2018-04-23T02:57:07.640Z,50.80
2018-04-23T02:59:35.973Z,50.60
2018-04-23T03:02:03.550Z,50.60
2018-04-23T03:04:31.174Z,50.70
2018-04-23T03:06:58.760Z,50.70
2018-04-23T03:09:26.339Z,50.80
2018-04-23T03:11:53.935Z,50.70
2018-04-23T03:14:21.545Z,50.20
2018-04-23T03:16:49.589Z,50.30
2018-04-23T03:19:17.170Z,49.90
2018-04-23T03:21:44.756Z,50.00
2018-04-23T03:24:13.123Z,50.40
2018-04-23T03:26:40.734Z,50.40
2018-04-23T03:29:08.325Z,50.20
2018-04-23T03:31:35.889Z,51.40
2018-04-23T03:34:03.515Z,52.00
2018-04-23T03:36:31.116Z,52.30
2018-04-23T03:38:58.735Z,52.30
2018-04-23T03:41:26.313Z,52.00
2018-04-23T03:43:53.927Z,52.30
2018-04-23T03:46:22.295Z,51.60
2018-04-23T03:48:50.634Z,51.00
2018-04-23T03:51:18.272Z,51.00
2018-04-23T03:53:45.836Z,50.70
2018-04-23T03:56:13.447Z,50.80
2018-04-23T03:58:41.786Z,50.90
2018-04-23T04:01:09.365Z,50.90
2018-04-23T04:03:36.956Z,50.80
2018-04-23T04:06:05.315Z,50.80
2018-04-23T04:08:32.889Z,50.90
2018-04-23T04:11:00.485Z,50.60
2018-04-23T04:13:39.652Z,50.20
2018-04-23T04:16:18.987Z,50.30
2018-04-23T04:18:46.608Z,50.30
2018-04-23T04:21:14.175Z,51.00
2018-04-23T04:29:32.403Z,50.10
2018-04-23T04:40:37.342Z,50.30
2018-04-23T04:43:04.926Z,50.30
2018-04-23T04:45:33.305Z,50.50
2018-04-23T04:48:01.642Z,50.00
2018-04-23T04:50:29.239Z,50.00
2018-04-23T04:52:57.606Z,50.80
2018-04-23T04:55:25.944Z,51.60
2018-04-23T04:57:53.568Z,51.60
2018-04-23T05:00:21.184Z,51.70
2018-04-23T05:02:48.768Z,51.50
2018-04-23T05:05:17.102Z,56.60
2018-04-23T05:07:44.704Z,57.20
2018-04-23T05:10:12.283Z,55.80
2018-04-23T05:12:40.636Z,53.00
2018-04-23T05:15:08.209Z,53.00
2018-04-23T05:17:36.565Z,56.10
2018-04-23T05:20:04.733Z,56.20
2018-04-23T05:22:33.118Z,56.70
2018-04-23T05:25:00.715Z,56.60
2018-04-23T05:27:28.274Z,56.70
2018-04-23T05:29:55.928Z,56.90
2018-04-23T05:32:23.462Z,57.10
2018-04-23T05:34:51.037Z,55.60
2018-04-23T05:37:19.439Z,46.80
2018-04-23T05:39:47.013Z,46.90
2018-04-23T05:42:14.566Z,46.50
2018-04-23T05:44:42.173Z,46.60
2018-04-23T05:47:09.744Z,47.00
2018-04-23T05:49:38.131Z,49.60
2018-04-23T05:52:06.491Z,50.60
2018-04-23T05:54:34.068Z,50.60
2018-04-23T05:57:02.416Z,50.90
2018-04-23T05:59:30.060Z,50.80
2018-04-23T06:01:57.624Z,50.30
2018-04-23T06:04:25.205Z,50.10
2018-04-23T06:06:52.790Z,50.90
2018-04-23T06:09:21.200Z,51.20
2018-04-23T06:11:48.803Z,51.20
2018-04-23T06:14:16.405Z,50.80
2018-04-23T06:16:44.000Z,50.70
2018-04-23T06:19:11.559Z,50.10
2018-04-23T06:21:39.124Z,48.30
2018-04-23T06:24:06.698Z,48.20
2018-04-23T06:26:34.258Z,48.20
2018-04-23T06:29:01.893Z,48.40
2018-04-23T06:31:29.460Z,49.30
2018-04-23T06:33:57.020Z,49.30
2018-04-23T06:36:24.611Z,49.80
2018-04-23T06:38:52.948Z,47.10
2018-04-23T06:41:20.626Z,47.10
2018-04-23T06:43:48.223Z,46.70
2018-04-23T06:46:15.798Z,46.20
2018-04-23T06:48:43.532Z,45.70
2018-04-23T06:51:11.873Z,46.50
2018-04-23T06:53:39.441Z,46.50
2018-04-23T06:56:07.045Z,44.60
2018-04-23T06:58:34.618Z,43.50
2018-04-23T07:01:02.210Z,43.60
2018-04-23T07:03:29.780Z,43.50
2018-04-23T07:05:57.400Z,43.00
2018-04-23T07:08:25.000Z,42.60
2018-04-23T07:10:52.557Z,42.40
2018-04-23T07:13:20.190Z,41.90
2018-04-23T07:15:48.201Z,42.30
2018-04-23T07:18:16.547Z,41.60
2018-04-23T07:20:44.147Z,41.50
2018-04-23T07:23:12.577Z,40.40
2018-04-23T07:25:40.128Z,40.30
2018-04-23T07:28:07.739Z,40.40
2018-04-23T07:30:36.098Z,39.90
2018-04-23T07:33:03.705Z,39.90
2018-04-23T07:35:31.290Z,40.10
2018-04-23T07:37:58.880Z,40.00
2018-04-23T07:40:26.501Z,39.60
2018-04-23T07:42:54.103Z,39.20
2018-04-23T07:45:21.703Z,38.80
2018-04-23T07:47:49.308Z,36.90
2018-04-23T07:50:16.922Z,36.90
2018-04-23T07:52:44.537Z,37.20
2018-04-23T07:55:12.140Z,36.90
2018-04-23T07:57:40.518Z,34.10
2018-04-23T08:00:08.910Z,35.40
2018-04-23T08:02:36.548Z,35.40
2018-04-23T08:05:04.123Z,34.40
2018-04-23T08:07:31.751Z,34.80
2018-04-23T08:09:59.350Z,33.80
2018-04-23T08:12:26.954Z,34.60
2018-04-23T08:14:54.551Z,32.70
2018-04-23T08:17:23.063Z,34.20
2018-04-23T08:19:50.658Z,34.20
2018-04-23T08:22:18.218Z,35.90
2018-04-23T08:24:45.823Z,38.20
2018-04-23T08:27:13.407Z,42.10
2018-04-23T08:29:41.022Z,43.00
2018-04-23T08:32:09.378Z,44.20
2018-04-23T08:34:36.998Z,44.10
2018-04-23T08:37:04.591Z,43.60
2018-04-23T08:39:32.162Z,48.10
2018-04-23T08:41:59.766Z,47.60
2018-04-23T08:44:27.339Z,48.20
2018-04-23T08:46:54.916Z,47.50
2018-04-23T08:49:22.531Z,47.20
2018-04-23T08:51:50.874Z,45.70
2018-04-23T08:54:18.482Z,45.70
2018-04-23T08:56:46.066Z,45.70
2018-04-23T08:59:13.673Z,45.70
2018-04-23T09:01:42.027Z,46.00
2018-04-23T09:04:09.632Z,46.00
2018-04-23T09:06:37.227Z,46.60
2018-04-23T09:09:05.629Z,44.10
2018-04-23T09:11:33.194Z,42.20
2018-04-23T09:14:00.771Z,40.20
2018-04-23T09:16:29.134Z,38.50
2018-04-23T09:18:57.481Z,36.80
2018-04-23T09:21:25.173Z,36.80
2018-04-23T09:23:52.766Z,35.70
2018-04-23T09:26:20.379Z,34.60
2018-04-23T09:28:47.974Z,34.60
2018-04-23T09:31:16.315Z,35.00
2018-04-23T09:33:43.921Z,34.70
2018-04-23T09:36:11.521Z,34.60
2018-04-23T09:38:39.714Z,37.10
2018-04-23T09:41:07.312Z,36.50
2018-04-23T09:43:35.658Z,36.50
2018-04-23T09:46:03.247Z,36.50
2018-04-23T09:48:31.654Z,34.80
2018-04-23T09:50:59.232Z,34.80
2018-04-23T09:53:26.853Z,35.30
2018-04-23T09:56:15.353Z,35.30
2018-04-23T09:58:42.999Z,34.90
2018-04-23T10:01:16.193Z,35.20
2018-04-23T10:03:43.773Z,34.20
2018-04-23T10:06:11.404Z,35.20
2018-04-23T10:08:39.042Z,34.80
2018-04-23T10:11:07.429Z,32.50
2018-04-23T10:13:35.018Z,32.40
2018-04-23T10:16:02.625Z,34.10
2018-04-23T10:18:30.188Z,33.60
2018-04-23T10:20:58.593Z,34.30
2018-04-23T10:23:26.169Z,34.20
2018-04-23T10:25:53.746Z,32.50
2018-04-23T10:28:21.364Z,32.60
2018-04-23T10:30:49.705Z,33.10
2018-04-23T10:33:17.265Z,33.10
2018-04-23T10:35:45.154Z,33.70
2018-04-23T10:38:12.781Z,33.70
2018-04-23T10:40:40.577Z,32.90
2018-04-23T10:43:08.182Z,33.50
2018-04-23T10:45:35.759Z,34.20
2018-04-23T10:48:03.349Z,34.00
2018-04-23T10:50:30.958Z,33.30
2018-04-23T10:52:58.541Z,33.00
2018-04-23T10:55:26.178Z,33.40
2018-04-23T10:57:53.760Z,32.70
2018-04-23T11:00:21.327Z,33.00
2018-04-23T11:02:48.930Z,34.00
2018-04-23T11:05:16.550Z,32.20
2018-04-23T11:07:44.109Z,33.00
2018-04-23T11:10:11.743Z,32.00
2018-04-23T11:12:39.324Z,32.50
2018-04-23T11:15:06.890Z,32.60
2018-04-23T11:17:34.480Z,33.50
2018-04-23T11:20:02.066Z,32.90
2018-04-23T11:22:30.444Z,31.50
2018-04-23T11:24:58.020Z,31.50
2018-04-23T11:27:25.660Z,31.70
2018-04-23T11:29:53.243Z,31.70
2018-04-23T11:32:21.588Z,32.30
2018-04-23T11:34:49.180Z,32.30
2018-04-23T11:37:17.573Z,32.00
2018-04-23T11:39:45.218Z,32.00
2018-04-23T11:42:13.556Z,31.40
2018-04-23T11:44:41.138Z,31.40
2018-04-23T11:47:08.733Z,32.60
2018-04-23T11:49:36.296Z,33.10
2018-04-23T11:52:03.865Z,32.80
2018-04-23T11:54:31.456Z,32.60
2018-04-23T11:56:59.119Z,32.10
2018-04-23T11:59:26.685Z,32.50
2018-04-23T12:01:54.253Z,32.40
2018-04-23T12:04:21.870Z,33.00
2018-04-23T12:06:49.457Z,34.00
2018-04-23T12:09:17.062Z,33.00
2018-04-23T12:11:45.404Z,33.40
2018-04-23T12:14:13.061Z,33.40
2018-04-23T12:16:40.626Z,33.30
2018-04-23T12:19:08.209Z,33.60
2018-04-23T12:21:35.861Z,32.70
2018-04-23T12:24:03.435Z,33.10
2018-04-23T12:26:31.016Z,34.10
2018-04-23T12:28:59.393Z,33.60
2018-04-23T12:31:27.718Z,34.10
2018-04-23T12:33:55.332Z,34.10
2018-04-23T12:36:23.732Z,36.00
2018-04-23T12:38:51.307Z,36.00
2018-04-23T12:41:18.898Z,36.90
2018-04-23T12:43:46.498Z,37.10
2018-04-23T12:46:14.966Z,36.90
2018-04-23T12:48:42.478Z,36.90
2018-04-23T12:51:10.040Z,36.80
2018-04-23T12:53:37.638Z,38.10
2018-04-23T12:56:05.271Z,37.10
2018-04-23T12:58:33.041Z,37.30
2018-04-23T13:01:00.610Z,36.00
2018-04-23T13:03:28.226Z,36.40
2018-04-23T13:05:55.805Z,36.60
2018-04-23T13:08:23.382Z,36.90
2018-04-23T13:10:51.008Z,36.80
2018-04-23T13:13:18.584Z,37.20
2018-04-23T13:15:46.154Z,36.40
2018-04-23T13:18:13.788Z,37.30
2018-04-23T13:20:41.371Z,37.70
2018-04-23T13:23:08.956Z,37.60
2018-04-23T13:25:36.531Z,37.70
2018-04-23T13:28:04.137Z,36.70
2018-04-23T13:30:31.708Z,37.70
2018-04-23T13:32:59.307Z,37.70
2018-04-23T13:35:26.852Z,37.70
2018-04-23T13:37:54.441Z,37.30
2018-04-23T13:40:22.023Z,37.30
2018-04-23T13:42:50.343Z,37.00
2018-04-23T13:45:17.959Z,37.00
2018-04-23T13:47:45.533Z,37.60
2018-04-23T13:50:13.091Z,37.30
2018-04-23T13:52:40.673Z,37.60
2018-04-23T13:55:08.229Z,37.10
2018-04-23T13:57:35.807Z,38.00
2018-04-23T14:00:03.383Z,36.00
2018-04-23T14:02:30.947Z,36.60
2018-04-23T14:04:58.538Z,36.70
2018-04-23T14:07:26.892Z,37.90
2018-04-23T14:09:55.296Z,37.80
2018-04-23T14:12:23.641Z,37.70
2018-04-23T14:14:51.272Z,37.60
2018-04-23T14:17:18.856Z,39.00
2018-04-23T14:19:46.410Z,38.70
2018-04-23T14:22:13.955Z,38.50
2018-04-23T14:24:41.580Z,38.80
2018-04-23T14:27:09.911Z,39.90
2018-04-23T14:29:37.496Z,39.80
2018-04-23T14:32:06.012Z,39.40
2018-04-23T14:34:33.571Z,39.40
2018-04-23T14:37:01.908Z,40.70
2018-04-23T14:39:29.561Z,40.60
2018-04-23T14:41:57.120Z,40.90
2018-04-23T14:44:24.695Z,41.20
2018-04-23T14:46:53.090Z,40.70
2018-04-23T14:49:21.488Z,40.80
2018-04-23T14:51:49.826Z,40.80
2018-04-23T14:54:17.429Z,40.80
2018-04-23T14:56:45.842Z,41.20
2018-04-23T14:59:13.454Z,41.10
2018-04-23T15:01:41.783Z,41.30
2018-04-23T15:04:09.352Z,41.30
2018-04-23T15:06:36.983Z,40.70
2018-04-23T15:09:04.629Z,40.70
2018-04-23T15:11:32.964Z,41.60
2018-04-23T15:14:00.575Z,42.30
2018-04-23T15:16:28.183Z,41.40
2018-04-23T15:18:55.749Z,42.00
2018-04-23T15:21:23.499Z,42.40
2018-04-23T15:23:51.667Z,42.80
2018-04-23T15:26:19.257Z,42.70
2018-04-23T15:28:46.861Z,43.10
2018-04-23T15:31:14.476Z,43.40
2018-04-23T15:33:42.844Z,43.30
2018-04-23T15:36:10.439Z,43.30
2018-04-23T15:38:38.799Z,43.70
2018-04-23T15:41:06.410Z,43.60
2018-04-23T15:43:34.107Z,44.20
2018-04-23T15:46:01.676Z,44.40
2018-04-23T15:48:29.245Z,44.80
2018-04-23T15:50:56.941Z,44.30
2018-04-23T15:53:25.280Z,44.70
2018-04-23T15:55:52.834Z,44.70
2018-04-23T15:58:20.493Z,44.70
2018-04-23T16:00:48.081Z,45.30
2018-04-23T16:03:15.683Z,44.30
2018-04-23T16:05:43.255Z,45.60
2018-04-23T16:08:10.846Z,45.40
2018-04-23T16:10:38.415Z,45.50
2018-04-23T16:13:06.022Z,46.00
2018-04-23T16:15:33.585Z,46.10
2018-04-23T16:18:01.185Z,46.30
2018-04-23T16:20:28.734Z,46.20
2018-04-23T16:22:56.293Z,46.20
2018-04-23T16:25:23.900Z,46.10
2018-04-23T16:27:52.247Z,46.20
2018-04-23T16:30:19.816Z,46.10
2018-04-23T16:32:47.453Z,46.10
2018-04-23T16:35:15.019Z,46.80
2018-04-23T16:37:42.586Z,47.80
2018-04-23T16:40:10.189Z,47.70
2018-04-23T16:42:38.543Z,46.70
2018-04-23T16:45:06.120Z,46.60
2018-04-23T16:47:33.880Z,45.60
2018-04-23T16:50:02.221Z,45.30
2018-04-23T16:52:29.860Z,45.20
2018-04-23T16:54:57.819Z,45.30
2018-04-23T16:57:26.152Z,44.50
2018-04-23T16:59:53.784Z,45.00
2018-04-23T17:02:21.365Z,44.80
2018-04-23T17:04:49.011Z,44.20
2018-04-23T17:07:16.594Z,44.00
2018-04-23T17:09:44.289Z,44.10
2018-04-23T17:12:12.619Z,44.60
2018-04-23T17:14:40.189Z,44.50
2018-04-23T17:17:07.831Z,44.90
2018-04-23T17:19:35.384Z,45.00
2018-04-23T17:22:03.187Z,45.10
2018-04-23T17:24:30.774Z,45.30
2018-04-23T17:26:59.106Z,45.90
2018-04-23T17:29:26.724Z,45.90
2018-04-23T17:31:54.419Z,46.30
2018-04-23T17:34:21.981Z,46.60
2018-04-23T17:36:49.541Z,46.90
2018-04-23T17:39:17.193Z,47.20
2018-04-23T17:41:44.808Z,47.30
2018-04-23T17:44:12.376Z,48.00
2018-04-23T17:46:39.975Z,48.20
2018-04-23T17:49:07.547Z,48.30
2018-04-23T17:51:35.198Z,49.30
2018-04-23T17:54:02.772Z,51.60
2018-04-23T17:56:31.168Z,56.70
2018-04-23T17:58:58.772Z,56.70
2018-04-23T18:01:27.407Z,61.70
2018-04-23T18:03:54.979Z,61.60
2018-04-23T18:06:22.607Z,64.30
2018-04-23T18:08:50.175Z,65.90
2018-04-23T18:11:17.756Z,67.50
2018-04-23T18:13:45.367Z,69.10
2018-04-23T18:16:13.711Z,72.10
2018-04-23T18:18:42.123Z,72.00
2018-04-23T18:21:09.967Z,72.70
2018-04-23T18:23:37.529Z,72.80
2018-04-23T18:26:05.108Z,72.00
2018-04-23T18:28:33.518Z,73.40
2018-04-23T18:31:01.093Z,73.40
2018-04-23T18:33:28.659Z,74.60
2018-04-23T18:35:56.234Z,75.00
2018-04-23T18:38:23.843Z,74.90
2018-04-23T18:41:04.720Z,75.10
2018-04-23T18:43:32.318Z,74.90
2018-04-23T18:45:59.884Z,75.10
2018-04-23T18:48:27.497Z,75.60
2018-04-23T18:50:55.832Z,76.40
2018-04-23T18:53:23.469Z,76.40
2018-04-23T18:55:51.059Z,77.00
2018-04-23T18:58:18.645Z,76.90
2018-04-23T19:00:46.314Z,77.30
2018-04-23T19:03:13.892Z,77.30
2018-04-23T19:05:41.616Z,77.40
2018-04-23T19:08:10.550Z,77.70
2018-04-23T19:10:38.132Z,77.70
2018-04-23T19:13:05.787Z,77.50
2018-04-23T19:15:33.366Z,77.70
2018-04-23T19:18:00.980Z,76.90
2018-04-23T19:20:28.590Z,77.50
2018-04-23T19:22:56.206Z,77.70
2018-04-23T19:25:23.882Z,77.40
2018-04-23T19:27:51.492Z,77.60
2018-04-23T19:30:19.840Z,77.40
2018-04-23T19:32:47.475Z,77.30
2018-04-23T19:35:15.069Z,78.90
2018-04-23T19:37:42.676Z,79.50
2018-04-23T19:40:10.269Z,79.50
2018-04-23T19:42:37.925Z,80.40
2018-04-23T19:45:05.490Z,80.80
2018-04-23T19:47:33.072Z,81.00
2018-04-23T19:50:00.708Z,80.60
2018-04-23T19:52:28.338Z,80.30
2018-04-23T19:54:55.914Z,80.80
2018-04-23T19:57:23.639Z,81.90
2018-04-23T19:59:51.988Z,80.80
2018-04-23T20:02:19.587Z,80.80
2018-04-23T20:04:47.975Z,81.60
2018-04-23T20:07:15.711Z,82.00
2018-04-23T20:09:43.379Z,81.90
2018-04-23T20:12:11.891Z,82.70
2018-04-23T20:14:39.496Z,82.50
2018-04-23T20:17:07.054Z,82.50
2018-04-23T20:19:34.667Z,83.40
2018-04-23T20:22:02.374Z,83.60
2018-04-23T20:24:29.990Z,83.80
2018-04-23T20:26:57.575Z,82.90
2018-04-23T20:29:25.276Z,83.90
2018-04-23T20:31:53.638Z,85.00
2018-04-23T20:34:21.206Z,85.00
2018-04-23T20:36:48.814Z,84.80
2018-04-23T20:39:16.727Z,85.30
2018-04-23T20:41:44.575Z,84.90
2018-04-23T20:44:14.311Z,84.70
2018-04-23T20:46:42.214Z,84.60
2018-04-23T20:49:10.147Z,83.90
2018-04-23T20:51:38.012Z,83.90
2018-04-23T20:54:06.119Z,83.40
2018-04-23T20:56:34.008Z,84.00
2018-04-23T20:59:02.659Z,84.20
2018-04-23T21:01:30.531Z,84.10
2018-04-23T21:03:58.364Z,83.70
2018-04-23T21:06:26.130Z,83.30
2018-04-23T21:08:54.485Z,83.80
2018-04-23T21:11:22.127Z,83.80
2018-04-23T21:13:49.736Z,83.70
2018-04-23T21:16:18.088Z,83.20
2018-04-23T21:18:45.664Z,83.10
2018-04-23T21:21:13.256Z,82.50
2018-04-23T21:23:40.868Z,82.20
2018-04-23T21:26:08.447Z,82.20
2018-04-23T21:28:36.872Z,81.60
2018-04-23T21:31:04.459Z,81.60
2018-04-23T21:33:32.028Z,81.60
2018-04-23T21:35:59.657Z,81.60
2018-04-23T21:38:27.222Z,81.60
2018-04-23T21:40:54.786Z,81.60
2018-04-23T21:43:22.401Z,81.60
2018-04-23T21:45:50.736Z,81.60
2018-04-23T21:48:18.307Z,81.60
2018-04-23T21:50:46.001Z,81.60
2018-04-23T21:53:13.541Z,81.50
2018-04-23T21:55:42.074Z,81.50
2018-04-23T21:58:09.693Z,81.50
2018-04-23T22:00:38.072Z,81.50
2018-04-23T22:03:06.450Z,81.30
2018-04-23T22:05:46.438Z,81.40
2018-04-23T22:08:14.064Z,81.30
2018-04-23T22:10:41.628Z,82.40
2018-04-23T22:16:08.892Z,83.10
2018-04-23T22:18:48.885Z,83.70
2018-04-23T22:21:39.924Z,84.20
2018-04-23T22:24:26.853Z,84.30
2018-04-23T22:27:13.929Z,84.10
2018-04-23T22:44:12.154Z,84.60
2018-04-23T22:49:47.467Z,84.10
2018-04-23T22:52:34.841Z,83.70
2018-04-23T22:55:21.983Z,83.80
2018-04-23T23:18:06.641Z,83.60
2018-04-23T23:20:53.876Z,83.20
2018-04-23T23:26:18.683Z,82.90
2018-04-23T23:29:04.881Z,82.70
2018-04-23T23:31:51.243Z,82.80
2018-04-23T23:34:39.720Z,83.00
2018-04-23T23:37:26.839Z,82.80
2018-04-23T23:51:35.225Z,84.00
